Pagina principale
METAR-TAF:

METAR-TAF

Aeroporti :

Buochs, Svizzera

latitudine: 46-58-28N, longitudine: 8-23-49E, altezza: 449 m

Osservazione

Il bollettino è stato emesso 33 minuti fa, alle 00:50 UTC
Vento 1 kt da direzioni variabili
Temperature 1°C
Umidità 75%
Pressione 1033 hPa
Visibilità 10 km o più
nessuna nube inferiore a 1500 m e nessun cumulonembo

METAR: LSZC 240050Z AUTO VRB01KT CAVOK 01/M03 Q1033

Ora: 02:23 (01:23 UTC)

Previsione

Il bollettino è stato emesso 10 ore e 58 minuti fa, alle 14:25 UTC
Previsione valida dal 22 alle 15 UTC al 22 alle 24 UTC
Vento 3 kt da direzioni variabili
Visibilità 10 km o più
Nuvoloso ad un'altezza di 5000 ft
Probabilità 40%
dal 22 alle 20 UTC al 22 alle 24 UTC
Visibilità 10 km o più
nessuna nube inferiore a 1500 m e nessun cumulonembo

TAF: LSZC 221425Z 2215/2224 VRB03KT 9999 BKN050 PROB40 2220/2224 CAVOK

Osservazioni e previsioni meteorologiche di più di 4000 aeroporti (messaggi METAR e TAF).

Le stazioni disponibili sono rappresentate dai dischi gialli e rossi sulla carta.

Puntare il mouse per vedere il nome della stazione.

Clicca sopra per visualizzare le osservazioni e previsioni meteorologiche.

Per cambiare la mappa : fare clic sui pulsanti verdi con una croce nera per ingrandire, il pulsante verde con un trattino per diminuire, o sulla freccia verde per le mappe adiacenti.


METAR-TAF: